createdAt,value
2017-08-12T00:02:27.381Z,17.80
2017-08-12T00:04:54.971Z,17.70
2017-08-12T00:07:22.660Z,17.60
2017-08-12T00:09:50.627Z,17.60
2017-08-12T00:12:18.175Z,17.50
2017-08-12T00:14:45.771Z,17.50
2017-08-12T00:17:13.820Z,17.40
2017-08-12T00:19:41.381Z,17.40
2017-08-12T00:22:08.960Z,17.30
2017-08-12T00:24:37.778Z,17.30
2017-08-12T00:27:05.351Z,17.20
2017-08-12T00:29:32.921Z,17.20
2017-08-12T00:32:00.826Z,17.10
2017-08-12T00:34:28.388Z,17.10
2017-08-12T00:36:55.973Z,17.00
2017-08-12T00:39:24.628Z,17.00
2017-08-12T00:41:52.190Z,16.90
2017-08-12T00:44:19.784Z,16.90
2017-08-12T00:46:47.827Z,16.90
2017-08-12T00:49:15.402Z,16.90
2017-08-12T00:51:42.972Z,16.80
2017-08-12T00:54:11.641Z,16.70
2017-08-12T00:56:39.988Z,16.70
2017-08-12T00:59:07.543Z,16.70
2017-08-12T01:01:35.716Z,16.70
2017-08-12T01:04:03.303Z,16.60
2017-08-12T01:06:30.900Z,16.60
2017-08-12T01:08:58.812Z,16.60
2017-08-12T01:11:26.371Z,16.60
2017-08-12T01:13:53.933Z,16.60
2017-08-12T01:16:22.062Z,16.50
2017-08-12T01:18:49.656Z,16.50
2017-08-12T01:21:17.946Z,16.50
2017-08-12T01:23:46.036Z,16.50
2017-08-12T01:26:14.392Z,16.40
2017-08-12T01:28:41.953Z,16.40
2017-08-12T01:31:09.894Z,16.40
2017-08-12T01:33:37.464Z,16.40
2017-08-12T01:36:05.030Z,16.30
2017-08-12T01:38:33.029Z,16.30
2017-08-12T01:41:00.578Z,16.30
2017-08-12T01:43:28.161Z,16.30
2017-08-12T01:45:56.827Z,16.20
2017-08-12T01:48:24.423Z,16.20
2017-08-12T01:50:52.013Z,16.20
2017-08-12T01:53:19.895Z,16.20
2017-08-12T01:55:47.452Z,16.20
2017-08-12T01:58:15.004Z,16.20
2017-08-12T02:00:43.025Z,16.10
2017-08-12T02:03:11.420Z,16.10
2017-08-12T02:05:38.985Z,16.10
2017-08-12T02:08:07.012Z,16.10
2017-08-12T02:10:34.554Z,16.00
2017-08-12T02:13:02.329Z,16.00
2017-08-12T02:15:30.387Z,16.00
2017-08-12T02:17:57.952Z,16.00
2017-08-12T02:20:25.530Z,16.10
2017-08-12T02:22:53.418Z,16.00
2017-08-12T02:25:21.797Z,16.00
2017-08-12T02:27:49.377Z,16.00
2017-08-12T02:30:17.417Z,16.00
2017-08-12T02:32:45.774Z,16.00
2017-08-12T02:35:13.338Z,16.00
2017-08-12T02:37:41.241Z,16.00
2017-08-12T02:40:08.808Z,16.00
2017-08-12T02:42:36.365Z,16.00
2017-08-12T02:45:04.396Z,16.00
2017-08-12T02:47:31.947Z,15.90
2017-08-12T02:49:59.512Z,15.90
2017-08-12T02:52:27.652Z,15.90
2017-08-12T02:54:55.229Z,15.90
2017-08-12T02:57:22.811Z,15.90
2017-08-12T02:59:50.778Z,15.90
2017-08-12T03:02:18.353Z,15.90
2017-08-12T03:04:45.911Z,15.90
2017-08-12T03:07:14.581Z,16.00
2017-08-12T03:09:42.290Z,16.00
2017-08-12T03:12:09.908Z,16.00
2017-08-12T03:14:37.992Z,16.10
2017-08-12T03:17:05.640Z,16.10
2017-08-12T03:19:33.199Z,16.20
2017-08-12T03:22:01.226Z,16.20
2017-08-12T03:24:28.846Z,16.20
2017-08-12T03:26:56.441Z,16.20
2017-08-12T03:29:24.351Z,16.20
2017-08-12T03:31:51.929Z,16.20
2017-08-12T03:34:19.489Z,16.20
2017-08-12T03:36:48.166Z,16.10
2017-08-12T03:39:15.738Z,16.10
2017-08-12T03:41:43.304Z,16.20
2017-08-12T03:44:12.176Z,16.20
2017-08-12T03:46:39.745Z,16.20
2017-08-12T03:49:07.338Z,16.20
2017-08-12T03:51:35.213Z,16.20
2017-08-12T03:54:02.764Z,16.20
2017-08-12T03:56:30.324Z,16.20
2017-08-12T03:58:58.384Z,16.20
2017-08-12T04:01:26.002Z,16.20
2017-08-12T04:03:54.989Z,16.20
2017-08-12T04:06:23.230Z,16.20
2017-08-12T04:08:50.827Z,16.20
2017-08-12T04:11:18.457Z,16.20
2017-08-12T04:13:46.363Z,16.20
2017-08-12T04:16:13.989Z,16.20
2017-08-12T04:18:41.573Z,16.20
2017-08-12T04:21:09.718Z,16.20
2017-08-12T04:23:37.279Z,16.20
2017-08-12T04:26:04.845Z,16.20
2017-08-12T04:28:32.746Z,16.30
2017-08-12T04:31:00.292Z,16.30
2017-08-12T04:33:27.847Z,16.30
2017-08-12T04:35:55.741Z,16.30
2017-08-12T04:38:24.068Z,16.30
2017-08-12T04:40:51.629Z,16.20
2017-08-12T04:43:19.506Z,16.30
2017-08-12T04:45:47.078Z,16.20
2017-08-12T04:48:14.643Z,16.20
2017-08-12T04:50:43.340Z,16.20
2017-08-12T04:53:10.909Z,16.20
2017-08-12T04:55:38.472Z,16.20
2017-08-12T04:58:06.520Z,16.20
2017-08-12T05:00:34.103Z,16.20
2017-08-12T05:03:01.669Z,16.10
2017-08-12T05:05:30.334Z,16.20
2017-08-12T05:07:57.905Z,16.20
2017-08-12T05:10:25.460Z,16.30
2017-08-12T05:12:53.517Z,16.40
2017-08-12T05:15:21.093Z,16.30
2017-08-12T05:17:48.647Z,16.30
2017-08-12T05:20:16.611Z,16.30
2017-08-12T05:22:44.255Z,16.30
2017-08-12T05:25:11.848Z,16.30
2017-08-12T05:27:40.523Z,16.90
2017-08-12T05:30:08.109Z,16.90
2017-08-12T05:32:35.672Z,17.00
2017-08-12T05:35:04.555Z,17.30
2017-08-12T05:37:32.893Z,17.50
2017-08-12T05:40:00.467Z,17.50
2017-08-12T05:42:28.490Z,17.40
2017-08-12T05:44:56.217Z,17.60
2017-08-12T05:47:24.537Z,17.80
2017-08-12T05:49:52.440Z,17.80
2017-08-12T05:52:19.999Z,17.90
2017-08-12T05:54:47.565Z,17.90
2017-08-12T05:57:15.534Z,17.70
2017-08-12T05:59:43.110Z,17.70
2017-08-12T06:02:10.701Z,17.80
2017-08-12T06:04:38.575Z,17.70
2017-08-12T06:07:06.158Z,17.70
2017-08-12T06:09:33.764Z,17.60
2017-08-12T06:12:01.740Z,17.60
2017-08-12T06:14:30.095Z,17.50
2017-08-12T06:16:57.675Z,17.50
2017-08-12T06:19:26.340Z,17.50
2017-08-12T06:21:53.931Z,17.50
2017-08-12T06:24:21.820Z,17.50
2017-08-12T06:26:49.819Z,17.40
2017-08-12T06:29:17.369Z,17.40
2017-08-12T06:31:44.935Z,17.40
2017-08-12T06:34:12.788Z,17.50
2017-08-12T06:36:40.348Z,17.60
2017-08-12T06:39:07.906Z,17.50
2017-08-12T06:41:35.910Z,17.50
2017-08-12T06:44:03.505Z,17.50
2017-08-12T06:46:31.108Z,17.50
2017-08-12T06:48:59.080Z,17.40
2017-08-12T06:51:26.624Z,17.60
2017-08-12T06:53:54.187Z,17.80
2017-08-12T06:56:22.125Z,17.80
2017-08-12T06:58:49.700Z,17.80
2017-08-12T07:01:17.272Z,18.00
2017-08-12T07:03:45.275Z,18.20
2017-08-12T07:06:12.851Z,18.50
2017-08-12T07:08:40.454Z,18.50
2017-08-12T07:11:08.347Z,18.40
2017-08-12T07:13:35.941Z,18.50
2017-08-12T07:16:04.265Z,18.80
2017-08-12T07:18:32.281Z,18.70
2017-08-12T07:21:00.793Z,18.70
2017-08-12T07:23:28.383Z,18.70
2017-08-12T07:25:56.287Z,18.80
2017-08-12T07:28:24.636Z,19.10
2017-08-12T07:30:52.207Z,19.00
2017-08-12T07:33:20.265Z,19.10
2017-08-12T07:35:47.819Z,19.20
2017-08-12T07:38:15.384Z,19.40
2017-08-12T07:40:43.497Z,19.50
2017-08-12T07:43:11.921Z,19.70
2017-08-12T07:45:39.498Z,19.70
2017-08-12T07:48:07.489Z,19.80
2017-08-12T07:50:35.331Z,19.80
2017-08-12T07:53:03.024Z,19.90
2017-08-12T07:55:31.684Z,19.60
2017-08-12T07:57:59.863Z,19.60
2017-08-12T08:00:27.514Z,19.40
2017-08-12T08:02:55.826Z,19.40
2017-08-12T08:05:23.444Z,19.20
2017-08-12T08:07:51.018Z,19.00
2017-08-12T08:10:18.925Z,18.90
2017-08-12T08:12:47.273Z,19.40
2017-08-12T08:15:14.856Z,19.40
2017-08-12T08:17:43.530Z,19.30
2017-08-12T08:20:11.155Z,19.30
2017-08-12T08:22:38.738Z,19.30
2017-08-12T08:25:06.496Z,19.60
2017-08-12T08:27:34.062Z,19.50
2017-08-12T08:30:01.632Z,19.40
2017-08-12T08:32:29.372Z,19.30
2017-08-12T08:34:56.948Z,19.40
2017-08-12T08:37:24.509Z,19.40
2017-08-12T08:39:52.282Z,19.50
2017-08-12T08:42:20.623Z,19.80
2017-08-12T08:44:48.237Z,19.80
2017-08-12T08:47:17.087Z,19.60
2017-08-12T08:49:44.649Z,19.60
2017-08-12T08:52:12.321Z,19.50
2017-08-12T08:54:40.289Z,19.40
2017-08-12T08:57:07.879Z,19.20
2017-08-12T08:59:35.654Z,19.20
2017-08-12T09:02:03.685Z,19.50
2017-08-12T09:04:31.263Z,20.20
2017-08-12T09:06:58.854Z,20.10
2017-08-12T09:09:26.675Z,20.00
2017-08-12T09:11:54.249Z,19.90
2017-08-12T09:14:21.835Z,19.90
2017-08-12T09:16:49.735Z,19.90
2017-08-12T09:19:17.332Z,19.80
2017-08-12T09:21:44.905Z,19.70
2017-08-12T09:24:13.420Z,20.20
2017-08-12T09:26:40.985Z,20.20
2017-08-12T09:29:08.624Z,20.60
2017-08-12T09:31:36.543Z,20.90
2017-08-12T09:34:04.140Z,21.10
2017-08-12T09:36:31.905Z,21.00
2017-08-12T09:39:00.556Z,21.20
2017-08-12T09:41:28.123Z,21.20
2017-08-12T09:43:55.686Z,21.50
2017-08-12T09:46:23.558Z,21.80
2017-08-12T09:48:51.127Z,21.40
2017-08-12T09:51:18.687Z,21.20
2017-08-12T09:53:47.565Z,20.80
2017-08-12T09:56:15.909Z,20.50
2017-08-12T09:58:43.486Z,20.50
2017-08-12T10:01:11.365Z,20.50
2017-08-12T10:03:39.964Z,20.80
2017-08-12T10:06:07.538Z,20.70
2017-08-12T10:08:35.564Z,20.90
2017-08-12T10:11:03.130Z,21.10
2017-08-12T10:13:30.728Z,21.40
2017-08-12T10:15:58.781Z,21.50
2017-08-12T10:18:27.145Z,22.10
2017-08-12T10:20:54.942Z,22.10
2017-08-12T10:23:22.768Z,22.00
2017-08-12T10:25:50.380Z,21.90
2017-08-12T10:28:17.949Z,21.80
2017-08-12T10:30:45.891Z,21.70
2017-08-12T10:33:13.448Z,21.50
2017-08-12T10:35:41.801Z,21.20
2017-08-12T10:38:09.517Z,21.20
2017-08-12T10:40:38.039Z,21.00
2017-08-12T10:43:05.725Z,21.20
2017-08-12T10:45:35.093Z,21.50
2017-08-12T10:48:02.677Z,21.50
2017-08-12T10:50:30.251Z,22.00
2017-08-12T10:52:58.203Z,22.00
2017-08-12T10:55:25.759Z,21.90
2017-08-12T10:57:53.335Z,22.00
2017-08-12T11:00:22.008Z,21.80
2017-08-12T11:02:49.571Z,21.70
2017-08-12T11:05:18.108Z,21.60
2017-08-12T11:07:46.067Z,21.70
2017-08-12T11:10:13.620Z,21.70
2017-08-12T11:12:41.208Z,21.70
2017-08-12T11:15:09.203Z,21.80
2017-08-12T11:17:37.535Z,22.10
2017-08-12T11:20:05.973Z,22.10
2017-08-12T11:22:34.898Z,22.40
2017-08-12T11:25:03.666Z,22.30
2017-08-12T11:27:32.026Z,22.50
2017-08-12T11:29:59.776Z,22.50
2017-08-12T11:32:27.339Z,22.50
2017-08-12T11:34:54.896Z,22.50
2017-08-12T11:37:22.874Z,22.30
2017-08-12T11:39:51.391Z,21.80
2017-08-12T11:42:18.981Z,21.80
2017-08-12T11:44:46.838Z,21.50
2017-08-12T11:47:14.405Z,21.30
2017-08-12T11:49:41.969Z,21.10
2017-08-12T11:52:09.747Z,21.10
2017-08-12T11:54:37.342Z,21.00
2017-08-12T11:57:05.701Z,21.00
2017-08-12T11:59:33.877Z,21.00
2017-08-12T12:02:01.465Z,21.10
2017-08-12T12:04:29.055Z,21.10
2017-08-12T12:06:56.852Z,21.20
2017-08-12T12:09:24.411Z,21.30
2017-08-12T12:11:51.978Z,21.30
2017-08-12T12:14:22.511Z,21.30
2017-08-12T12:16:50.063Z,21.50
2017-08-12T12:19:17.685Z,21.60
2017-08-12T12:21:45.710Z,21.80
2017-08-12T12:24:14.043Z,22.00
2017-08-12T12:26:41.620Z,22.00
2017-08-12T12:29:09.515Z,22.00
2017-08-12T12:31:37.092Z,22.00
2017-08-12T12:34:04.665Z,21.90
2017-08-12T12:36:32.474Z,22.00
2017-08-12T12:39:00.064Z,22.00
2017-08-12T12:41:27.633Z,22.00
2017-08-12T12:43:55.484Z,22.10
2017-08-12T12:46:23.833Z,22.00
2017-08-12T12:48:51.386Z,22.00
2017-08-12T12:51:19.486Z,22.00
2017-08-12T12:53:47.075Z,22.10
2017-08-12T12:56:14.653Z,22.10
2017-08-12T12:58:42.476Z,22.00
2017-08-12T13:01:10.041Z,21.80
2017-08-12T13:03:37.612Z,21.60
2017-08-12T13:06:06.284Z,21.10
2017-08-12T13:08:34.619Z,20.90
2017-08-12T13:11:02.188Z,20.90
2017-08-12T13:13:30.081Z,20.60
2017-08-12T13:15:57.644Z,20.40
2017-08-12T13:18:25.222Z,20.30
2017-08-12T13:20:53.267Z,20.20
2017-08-12T13:23:20.848Z,20.20
2017-08-12T13:25:48.421Z,20.00
2017-08-12T13:28:16.426Z,20.00
2017-08-12T13:30:44.013Z,19.90
2017-08-12T13:33:11.755Z,20.00
2017-08-12T13:35:39.828Z,20.00
2017-08-12T13:38:07.483Z,21.10
2017-08-12T13:40:35.080Z,21.20
2017-08-12T13:43:02.863Z,21.40
2017-08-12T13:45:30.466Z,21.50
2017-08-12T13:47:58.104Z,21.50
2017-08-12T13:50:26.036Z,21.60
2017-08-12T13:52:54.388Z,22.00
2017-08-12T13:55:22.098Z,22.00
2017-08-12T13:57:50.076Z,22.20
2017-08-12T14:00:17.674Z,22.50
2017-08-12T14:02:45.297Z,22.70
2017-08-12T14:05:13.233Z,24.10
2017-08-12T14:07:40.826Z,25.20
2017-08-12T14:10:08.409Z,25.70
2017-08-12T14:12:36.413Z,26.30
2017-08-12T14:15:03.962Z,26.10
2017-08-12T14:17:31.538Z,25.90
2017-08-12T14:19:59.387Z,25.70
2017-08-12T14:22:26.947Z,25.40
2017-08-12T14:24:54.532Z,25.10
2017-08-12T14:27:22.407Z,24.90
2017-08-12T14:29:50.760Z,24.60
2017-08-12T14:32:18.361Z,24.50
2017-08-12T14:34:46.939Z,24.40
2017-08-12T14:37:14.502Z,24.40
2017-08-12T14:39:42.193Z,24.40
2017-08-12T14:42:10.210Z,24.30
2017-08-12T14:44:37.767Z,24.00
2017-08-12T14:47:05.331Z,23.90
2017-08-12T14:49:34.013Z,23.80
2017-08-12T14:52:01.589Z,23.80
2017-08-12T14:54:29.164Z,23.90
2017-08-12T14:56:56.988Z,24.00
2017-08-12T14:59:24.566Z,24.10
2017-08-12T15:01:52.121Z,23.90
2017-08-12T15:04:20.081Z,23.90
2017-08-12T15:06:47.653Z,23.80
2017-08-12T15:09:15.298Z,23.50
2017-08-12T15:11:43.392Z,23.10
2017-08-12T15:14:11.782Z,22.50
2017-08-12T15:16:39.354Z,22.50
2017-08-12T15:19:07.103Z,22.30
2017-08-12T15:21:34.674Z,22.10
2017-08-12T15:24:02.270Z,22.70
2017-08-12T15:26:30.173Z,22.50
2017-08-12T15:28:57.761Z,22.40
2017-08-12T15:31:25.370Z,22.30
2017-08-12T15:33:53.164Z,22.20
2017-08-12T15:36:21.534Z,22.80
2017-08-12T15:38:49.184Z,22.80
2017-08-12T15:41:17.050Z,22.50
2017-08-12T15:43:44.654Z,22.30
2017-08-12T15:46:12.268Z,24.80
2017-08-12T15:48:40.410Z,26.20
2017-08-12T15:51:08.012Z,27.90
2017-08-12T15:53:35.613Z,27.70
2017-08-12T15:56:03.494Z,26.80
2017-08-12T15:58:31.109Z,25.90
2017-08-12T16:00:58.715Z,27.50
2017-08-12T16:03:26.546Z,29.20
2017-08-12T16:05:54.193Z,28.60
2017-08-12T16:08:21.757Z,29.60
2017-08-12T16:10:49.646Z,30.90
2017-08-12T16:13:17.210Z,30.40
2017-08-12T16:15:44.820Z,31.70
2017-08-12T16:18:12.528Z,30.60
2017-08-12T16:20:40.097Z,29.10
2017-08-12T16:23:07.658Z,28.00
2017-08-12T16:25:35.504Z,27.10
2017-08-12T16:28:03.841Z,25.70
2017-08-12T16:30:31.420Z,25.60
2017-08-12T16:32:59.528Z,25.00
2017-08-12T16:35:27.140Z,24.50
2017-08-12T16:37:54.771Z,24.10
2017-08-12T16:40:22.705Z,23.70
2017-08-12T16:42:51.062Z,23.10
2017-08-12T16:45:18.650Z,23.10
2017-08-12T16:47:47.299Z,22.70
2017-08-12T16:50:14.870Z,22.70
2017-08-12T16:52:42.471Z,22.50
2017-08-12T16:55:10.316Z,22.40
2017-08-12T16:57:38.647Z,22.10
2017-08-12T17:00:06.245Z,22.10
2017-08-12T17:02:34.768Z,21.90
2017-08-12T17:05:02.335Z,21.90
2017-08-12T17:07:29.917Z,21.80
2017-08-12T17:09:57.907Z,21.70
2017-08-12T17:12:26.005Z,21.60
2017-08-12T17:14:53.597Z,21.60
2017-08-12T17:17:21.492Z,21.60
2017-08-12T17:19:49.116Z,21.60
2017-08-12T17:22:16.800Z,21.50
2017-08-12T17:24:44.718Z,21.50
2017-08-12T17:27:13.067Z,21.40
2017-08-12T17:29:40.707Z,21.40
2017-08-12T17:32:08.735Z,21.40
2017-08-12T17:34:36.318Z,21.40
2017-08-12T17:37:03.911Z,21.30
2017-08-12T17:39:31.908Z,21.30
2017-08-12T17:42:00.253Z,21.10
2017-08-12T17:44:28.008Z,21.10
2017-08-12T17:46:55.729Z,21.10
2017-08-12T17:49:23.446Z,21.00
2017-08-12T17:51:51.007Z,21.00
2017-08-12T17:54:18.764Z,20.90
2017-08-12T17:56:47.450Z,20.80
2017-08-12T17:59:15.099Z,20.80
2017-08-12T18:01:43.120Z,20.80
2017-08-12T18:04:11.497Z,20.60
2017-08-12T18:06:39.785Z,20.60
2017-08-12T18:09:07.657Z,20.60
2017-08-12T18:11:35.221Z,20.60
2017-08-12T18:14:02.812Z,20.50
2017-08-12T18:16:31.669Z,20.50
2017-08-12T18:18:59.361Z,20.50
2017-08-12T18:21:26.946Z,20.40
2017-08-12T18:23:54.846Z,20.40
2017-08-12T18:26:22.412Z,20.30
2017-08-12T18:28:50.744Z,20.30
2017-08-12T18:31:18.526Z,20.30
2017-08-12T18:33:46.136Z,20.30
2017-08-12T18:36:13.691Z,20.20
2017-08-12T18:38:41.706Z,20.20
2017-08-12T18:41:09.268Z,20.20
2017-08-12T18:43:36.866Z,20.20
2017-08-12T18:46:04.917Z,20.20
2017-08-12T18:48:33.262Z,20.10
2017-08-12T18:51:01.522Z,20.10
2017-08-12T18:53:29.342Z,20.10
2017-08-12T18:55:57.691Z,20.00
2017-08-12T18:58:25.280Z,20.00
2017-08-12T19:00:53.811Z,20.00
2017-08-12T19:03:21.478Z,19.90
2017-08-12T19:05:49.102Z,19.90
2017-08-12T19:08:17.145Z,19.90
2017-08-12T19:10:44.896Z,19.90
2017-08-12T19:13:12.554Z,19.90
2017-08-12T19:15:40.739Z,19.90
2017-08-12T19:18:08.524Z,19.80
2017-08-12T19:20:36.400Z,19.80
2017-08-12T19:23:04.328Z,19.80
2017-08-12T19:25:31.920Z,19.80
2017-08-12T19:27:59.481Z,19.80
2017-08-12T19:30:28.277Z,19.70
2017-08-12T19:32:56.054Z,19.60
2017-08-12T19:35:23.690Z,19.70
2017-08-12T19:37:52.209Z,19.70
2017-08-12T19:40:19.787Z,19.70
2017-08-12T19:42:47.655Z,19.60
2017-08-12T19:45:15.764Z,19.60
2017-08-12T19:47:43.355Z,19.60
2017-08-12T19:50:10.923Z,19.60
2017-08-12T19:52:38.742Z,19.60
2017-08-12T19:55:06.332Z,19.50
2017-08-12T19:57:33.916Z,19.50
2017-08-12T20:00:01.933Z,19.50
2017-08-12T20:02:29.517Z,19.50
2017-08-12T20:04:57.083Z,19.40
2017-08-12T20:07:24.919Z,19.40
2017-08-12T20:09:52.489Z,19.40
2017-08-12T20:12:20.122Z,19.30
2017-08-12T20:14:47.928Z,19.30
2017-08-12T20:17:15.516Z,19.30
2017-08-12T20:19:43.635Z,19.20
2017-08-12T20:22:11.522Z,19.20
2017-08-12T20:24:40.690Z,19.20
2017-08-12T20:27:08.269Z,19.20
2017-08-12T20:29:36.960Z,19.10
2017-08-12T20:32:05.325Z,19.10
2017-08-12T20:34:32.924Z,19.10
2017-08-12T20:37:00.765Z,19.10
2017-08-12T20:39:29.101Z,19.00
2017-08-12T20:41:56.723Z,19.00
2017-08-12T20:44:24.775Z,19.00
2017-08-12T20:46:53.293Z,18.90
2017-08-12T20:49:20.920Z,18.90
2017-08-12T20:51:49.598Z,18.90
2017-08-12T20:54:18.058Z,18.90
2017-08-12T20:56:45.762Z,18.90
2017-08-12T20:59:14.235Z,18.90
2017-08-12T21:01:42.142Z,18.90
2017-08-12T21:04:10.209Z,18.90
2017-08-12T21:06:38.984Z,18.90
2017-08-12T21:09:06.643Z,18.90
2017-08-12T21:11:34.390Z,18.90
2017-08-12T21:14:03.052Z,18.80
2017-08-12T21:16:30.643Z,18.80
2017-08-12T21:18:58.209Z,18.80
2017-08-12T21:21:25.941Z,18.80
2017-08-12T21:23:53.504Z,18.80
2017-08-12T21:26:21.094Z,18.80
2017-08-12T21:28:48.984Z,18.80
2017-08-12T21:31:16.560Z,18.70
2017-08-12T21:33:44.132Z,18.70
2017-08-12T21:36:12.161Z,18.70
2017-08-12T21:38:39.757Z,18.70
2017-08-12T21:41:07.358Z,18.70
2017-08-12T21:43:35.536Z,18.70
2017-08-12T21:46:03.170Z,18.70
2017-08-12T21:48:31.507Z,18.60
2017-08-12T21:50:59.322Z,18.60
2017-08-12T21:53:27.670Z,18.50
2017-08-12T21:55:55.239Z,18.50
2017-08-12T21:58:23.233Z,18.40
2017-08-12T22:00:50.817Z,18.40
2017-08-12T22:03:18.418Z,18.40
2017-08-12T22:05:46.515Z,18.40
2017-08-12T22:08:14.099Z,18.50
2017-08-12T22:10:41.933Z,18.50
2017-08-12T22:13:09.788Z,18.50
2017-08-12T22:15:37.386Z,18.50
2017-08-12T22:18:05.698Z,18.40
2017-08-12T22:20:33.512Z,18.40
2017-08-12T22:23:01.141Z,18.40
2017-08-12T22:25:28.784Z,18.40
2017-08-12T22:27:56.722Z,18.40
2017-08-12T22:30:25.092Z,18.50
2017-08-12T22:32:52.694Z,18.40
2017-08-12T22:35:20.695Z,18.50
2017-08-12T22:37:48.248Z,18.50
2017-08-12T22:40:15.815Z,18.40
2017-08-12T22:42:43.534Z,18.40
2017-08-12T22:45:11.114Z,18.40
2017-08-12T22:47:38.765Z,18.30
2017-08-12T22:50:06.698Z,18.30
2017-08-12T22:52:35.049Z,18.30
2017-08-12T22:55:02.636Z,18.30
2017-08-12T22:57:31.299Z,18.20
2017-08-12T22:59:58.873Z,18.20
2017-08-12T23:02:26.472Z,18.20
2017-08-12T23:04:54.350Z,18.20
2017-08-12T23:07:21.920Z,18.10
2017-08-12T23:09:49.481Z,18.10
2017-08-12T23:12:17.290Z,18.10
2017-08-12T23:14:44.865Z,18.00
2017-08-12T23:17:12.423Z,18.00
2017-08-12T23:19:40.313Z,18.00
2017-08-12T23:22:07.890Z,17.90
2017-08-12T23:24:35.442Z,17.90
2017-08-12T23:27:03.208Z,17.90
2017-08-12T23:29:30.975Z,17.80
2017-08-12T23:31:58.554Z,17.80
2017-08-12T23:34:26.421Z,17.80
2017-08-12T23:36:54.009Z,17.80
2017-08-12T23:39:21.565Z,17.70
2017-08-12T23:41:49.594Z,17.70
2017-08-12T23:44:17.173Z,17.70
2017-08-12T23:46:44.738Z,17.70
2017-08-12T23:49:12.601Z,17.60
2017-08-12T23:51:40.170Z,17.60
2017-08-12T23:54:07.772Z,17.60
2017-08-12T23:56:35.775Z,17.60
2017-08-12T23:59:03.347Z,17.60
